Hankins, New York
Current Conditions -  °F | °C
As of 2:15 AM on Monday 22 Dec 2014 (Local Time) from KMSV Reporting Station
Overcast Overcast  
Wind Chill: -5°   Ceiling: 2100
Heat Index: -2°   Visibility: 10mi
Dew Point: -4°   Wind: 6mph
Humidity: 86%   Direction: 100°E
Pressure: 30.28"   Gusts: NA
Location:  41.81°N, 75.09°W
Report Text: KMSV 220715Z AUTO 10005KT 10SM FEW012 OVC021 M02/M04 A3028 RMK AO1
Loading
Personal Weather Stations






























Interactive Weather Map New forecast layout! Learn more

10-Day Weather Forecast

Advertisements
Track Severe Weather on mobile